Аэропорт: Ханты-Мансийск. Ханты-Мансийск

ICAO: USHH

METAR:
2021-04-21 21:00:00
USHH 212100Z 15003MPS CAVOK 00/M06 Q1035 R06/010060 NOSIG
METAR:
2021-04-21 19:38:00
TAF USHH 211938Z 2121/2221 16003G09MPS 9999 BKN020 TEMPO 2121/2206 5000 BR FEW003 BKN016 BECMG 2200/2202 18006G14MPS TEMPO 2206/2215 FEW004 BKN016CB